createdAt,value
2022-08-26T00:01:16.517Z,8.40
2022-08-26T00:03:22.223Z,8.63
2022-08-26T00:05:26.894Z,8.43
2022-08-26T00:07:28.654Z,8.40
2022-08-26T00:09:30.839Z,8.25
2022-08-26T00:11:32.837Z,9.13
2022-08-26T00:13:35.319Z,8.73
2022-08-26T00:15:38.824Z,8.60
2022-08-26T00:17:40.904Z,8.00
2022-08-26T00:19:42.688Z,8.30
2022-08-26T00:21:45.643Z,8.27
2022-08-26T00:23:47.855Z,8.95
2022-08-26T00:25:49.535Z,8.85
2022-08-26T00:27:51.375Z,8.73
2022-08-26T00:29:54.689Z,9.13
2022-08-26T00:31:58.427Z,9.68
2022-08-26T00:34:02.665Z,9.48
2022-08-26T00:36:05.568Z,8.93
2022-08-26T00:38:07.491Z,9.80
2022-08-26T00:40:13.440Z,9.18
2022-08-26T00:42:15.128Z,8.50
2022-08-26T00:44:20.758Z,8.55
2022-08-26T00:46:29.304Z,8.95
2022-08-26T00:48:34.137Z,9.52
2022-08-26T00:50:41.608Z,9.48
2022-08-26T00:52:45.090Z,9.38
2022-08-26T00:55:00.010Z,9.23
2022-08-26T00:57:15.816Z,9.68
2022-08-26T00:59:20.548Z,9.52
2022-08-26T01:01:22.877Z,9.45
2022-08-26T01:03:26.670Z,10.07
2022-08-26T01:05:29.527Z,9.65
2022-08-26T01:07:34.728Z,9.07
2022-08-26T01:09:36.712Z,9.23
2022-08-26T01:11:39.216Z,8.48
2022-08-26T01:13:41.537Z,9.65
2022-08-26T01:15:47.801Z,10.40
2022-08-26T01:17:54.662Z,9.30
2022-08-26T01:20:03.849Z,9.07
2022-08-26T01:22:10.763Z,9.35
2022-08-26T01:24:14.341Z,8.93
2022-08-26T01:26:24.378Z,9.07
2022-08-26T01:28:31.608Z,8.93
2022-08-26T01:30:37.418Z,9.32
2022-08-26T01:32:40.337Z,9.20
2022-08-26T01:34:43.952Z,8.70
2022-08-26T01:36:51.394Z,8.48
2022-08-26T01:38:56.576Z,8.57
2022-08-26T01:40:58.531Z,8.27
2022-08-26T01:43:02.296Z,9.05
2022-08-26T01:45:17.292Z,8.95
2022-08-26T01:47:21.405Z,9.80
2022-08-26T01:49:24.876Z,9.65
2022-08-26T01:51:29.831Z,9.88
2022-08-26T01:53:34.562Z,8.57
2022-08-26T01:55:39.247Z,8.35
2022-08-26T01:57:48.531Z,8.55
2022-08-26T01:59:51.993Z,9.32
2022-08-26T02:01:57.026Z,8.88
2022-08-26T02:04:02.947Z,8.57
2022-08-26T02:06:09.231Z,8.50
2022-08-26T02:08:13.164Z,8.38
2022-08-26T02:10:18.355Z,9.00
2022-08-26T02:12:23.173Z,8.98
2022-08-26T02:14:29.330Z,8.90
2022-08-26T02:16:38.413Z,8.73
2022-08-26T02:18:46.836Z,9.10
2022-08-26T02:20:51.666Z,9.43
2022-08-26T02:22:53.651Z,9.60
2022-08-26T02:25:10.591Z,8.55
2022-08-26T02:27:12.265Z,9.23
2022-08-26T02:29:26.454Z,8.70
2022-08-26T02:31:29.059Z,8.80
2022-08-26T02:33:30.923Z,9.23
2022-08-26T02:35:35.611Z,8.88
2022-08-26T02:37:37.677Z,9.38
2022-08-26T02:39:44.098Z,9.23
2022-08-26T02:41:47.024Z,9.52
2022-08-26T02:43:49.829Z,9.55
2022-08-26T02:45:51.751Z,9.60
2022-08-26T02:47:54.430Z,9.20
2022-08-26T02:49:58.351Z,9.48
2022-08-26T02:52:01.919Z,8.50
2022-08-26T02:54:04.099Z,9.00
2022-08-26T02:56:08.525Z,10.15
2022-08-26T02:58:11.263Z,8.77
2022-08-26T03:00:15.435Z,9.45
2022-08-26T03:02:17.356Z,8.98
2022-08-26T03:04:19.289Z,8.75
2022-08-26T03:06:22.481Z,9.18
2022-08-26T03:08:24.263Z,9.40
2022-08-26T03:10:27.221Z,9.75
2022-08-26T03:12:29.096Z,9.23
2022-08-26T03:14:31.552Z,8.93
2022-08-26T03:16:35.595Z,10.02
2022-08-26T03:18:37.359Z,9.40
2022-08-26T03:20:40.082Z,9.10
2022-08-26T03:22:43.212Z,9.23
2022-08-26T03:24:50.513Z,8.57
2022-08-26T03:26:53.191Z,9.10
2022-08-26T03:29:13.969Z,8.90
2022-08-26T03:31:16.940Z,8.48
2022-08-26T03:33:19.100Z,9.57
2022-08-26T03:35:22.467Z,8.80
2022-08-26T03:37:24.054Z,9.65
2022-08-26T03:39:25.629Z,8.63
2022-08-26T03:41:27.281Z,9.88
2022-08-26T03:43:28.937Z,10.07
2022-08-26T03:45:30.644Z,9.90
2022-08-26T03:47:33.686Z,9.55
2022-08-26T03:49:37.646Z,9.00
2022-08-26T03:51:40.528Z,9.80
2022-08-26T03:53:44.567Z,10.23
2022-08-26T03:55:47.368Z,9.48
2022-08-26T03:57:56.461Z,11.02
2022-08-26T03:59:59.353Z,9.65
2022-08-26T04:02:00.967Z,10.15
2022-08-26T04:04:05.023Z,10.70
2022-08-26T04:06:08.332Z,9.65
2022-08-26T04:08:11.063Z,9.25
2022-08-26T04:10:15.581Z,9.60
2022-08-26T04:12:21.883Z,11.35
2022-08-26T04:14:25.951Z,9.88
2022-08-26T04:16:29.477Z,10.05
2022-08-26T04:18:37.203Z,10.05
2022-08-26T04:20:39.248Z,10.07
2022-08-26T04:22:43.858Z,10.05
2022-08-26T04:24:46.347Z,8.88
2022-08-26T04:26:50.516Z,8.85
2022-08-26T04:28:53.996Z,9.40
2022-08-26T04:30:56.037Z,9.68
2022-08-26T04:32:58.127Z,9.63
2022-08-26T04:35:00.022Z,8.95
2022-08-26T04:37:05.218Z,9.50
2022-08-26T04:39:18.811Z,10.02
2022-08-26T04:41:22.690Z,9.60
2022-08-26T04:43:28.409Z,9.18
2022-08-26T04:45:30.036Z,9.02
2022-08-26T04:47:37.781Z,8.77
2022-08-26T04:49:39.698Z,9.95
2022-08-26T04:51:43.967Z,9.45
2022-08-26T04:53:45.957Z,9.43
2022-08-26T04:55:48.527Z,9.95
2022-08-26T04:57:50.282Z,9.35
2022-08-26T04:59:52.144Z,10.02
2022-08-26T05:01:57.296Z,9.35
2022-08-26T05:03:59.236Z,9.23
2022-08-26T05:06:05.070Z,9.07
2022-08-26T05:08:07.261Z,9.85
2022-08-26T05:10:11.366Z,9.52
2022-08-26T05:12:13.164Z,10.18
2022-08-26T05:14:18.735Z,9.50
2022-08-26T05:16:20.735Z,9.75
2022-08-26T05:18:25.807Z,9.38
2022-08-26T05:20:27.786Z,9.82
2022-08-26T05:22:29.309Z,8.98
2022-08-26T05:24:31.364Z,9.75
2022-08-26T05:26:33.598Z,9.95
2022-08-26T05:28:45.514Z,10.23
2022-08-26T05:30:52.417Z,10.50
2022-08-26T05:32:55.401Z,10.05
2022-08-26T05:34:57.061Z,9.05
2022-08-26T05:37:02.447Z,10.00
2022-08-26T05:39:06.234Z,10.93
2022-08-26T05:41:21.651Z,10.23
2022-08-26T05:43:23.266Z,10.50
2022-08-26T05:45:25.393Z,10.02
2022-08-26T05:47:26.953Z,10.60
2022-08-26T05:49:28.749Z,10.57
2022-08-26T05:51:31.021Z,10.95
2022-08-26T05:53:32.960Z,10.52
2022-08-26T05:55:35.539Z,10.18
2022-08-26T05:57:42.205Z,10.32
2022-08-26T05:59:44.629Z,11.32
2022-08-26T06:01:55.438Z,10.70
2022-08-26T06:04:01.492Z,10.75
2022-08-26T06:06:09.737Z,10.05
2022-08-26T06:08:14.002Z,9.60
2022-08-26T06:10:31.470Z,9.90
2022-08-26T06:12:34.269Z,9.85
2022-08-26T06:14:36.072Z,9.80
2022-08-26T06:16:41.365Z,9.93
2022-08-26T06:18:47.832Z,9.63
2022-08-26T06:20:57.921Z,9.95
2022-08-26T06:23:18.348Z,9.38
2022-08-26T06:25:38.247Z,10.23
2022-08-26T06:27:42.430Z,9.68
2022-08-26T06:29:43.909Z,10.43
2022-08-26T06:31:46.338Z,9.05
2022-08-26T06:33:48.046Z,9.48
2022-08-26T06:35:50.876Z,9.35
2022-08-26T06:37:52.735Z,9.85
2022-08-26T06:39:54.367Z,9.48
2022-08-26T06:41:56.950Z,9.10
2022-08-26T06:44:00.498Z,10.05
2022-08-26T06:46:06.288Z,9.07
2022-08-26T06:48:10.364Z,9.77
2022-08-26T06:50:11.835Z,9.23
2022-08-26T06:52:13.564Z,10.10
2022-08-26T06:54:15.238Z,9.35
2022-08-26T06:56:25.764Z,10.13
2022-08-26T06:58:33.785Z,10.25
2022-08-26T07:00:39.148Z,10.73
2022-08-26T07:02:46.192Z,9.68
2022-08-26T07:04:48.769Z,9.82
2022-08-26T07:06:53.921Z,10.38
2022-08-26T07:09:03.302Z,10.00
2022-08-26T07:11:07.273Z,10.32
2022-08-26T07:13:11.087Z,10.07
2022-08-26T07:15:13.388Z,10.23
2022-08-26T07:17:18.288Z,9.95
2022-08-26T07:19:29.966Z,9.90
2022-08-26T07:21:34.154Z,9.93
2022-08-26T07:23:39.360Z,9.88
2022-08-26T07:25:42.656Z,9.98
2022-08-26T07:27:54.327Z,9.95
2022-08-26T07:29:57.215Z,10.05
2022-08-26T07:32:02.592Z,9.50
2022-08-26T07:34:04.531Z,9.80
2022-08-26T07:36:08.634Z,9.52
2022-08-26T07:38:11.156Z,10.05
2022-08-26T07:40:14.033Z,10.02
2022-08-26T07:42:19.862Z,9.23
2022-08-26T07:44:21.574Z,9.93
2022-08-26T07:46:27.134Z,9.57
2022-08-26T07:48:32.012Z,10.68
2022-08-26T07:50:50.128Z,9.38
2022-08-26T07:52:52.622Z,9.40
2022-08-26T07:54:58.053Z,9.70
2022-08-26T07:56:59.851Z,9.52
2022-08-26T07:59:01.762Z,10.07
2022-08-26T08:01:05.079Z,9.88
2022-08-26T08:03:09.617Z,9.65
2022-08-26T08:05:19.832Z,9.88
2022-08-26T08:07:44.207Z,9.18
2022-08-26T08:09:53.268Z,9.75
2022-08-26T08:11:57.406Z,8.98
2022-08-26T08:14:00.786Z,9.82
2022-08-26T08:16:05.340Z,9.30
2022-08-26T08:18:07.451Z,8.68
2022-08-26T08:20:22.151Z,9.20
2022-08-26T08:22:31.227Z,8.50
2022-08-26T08:24:34.341Z,8.85
2022-08-26T08:26:47.949Z,9.13
2022-08-26T08:29:00.841Z,9.25
2022-08-26T08:31:03.509Z,9.02
2022-08-26T08:33:16.098Z,8.82
2022-08-26T08:35:29.503Z,8.90
2022-08-26T08:37:32.583Z,9.27
2022-08-26T08:39:47.372Z,8.90
2022-08-26T08:42:06.789Z,8.27
2022-08-26T08:44:18.469Z,9.07
2022-08-26T08:46:20.526Z,9.25
2022-08-26T08:48:27.925Z,8.63
2022-08-26T08:50:35.040Z,8.60
2022-08-26T08:52:39.169Z,7.57
2022-08-26T08:54:40.715Z,9.23
2022-08-26T08:57:01.698Z,8.85
2022-08-26T08:59:24.619Z,8.05
2022-08-26T09:01:26.441Z,8.55
2022-08-26T09:03:46.590Z,8.48
2022-08-26T09:05:51.483Z,8.60
2022-08-26T09:08:03.142Z,8.05
2022-08-26T09:10:37.050Z,7.22
2022-08-26T09:12:38.812Z,7.70
2022-08-26T09:14:41.201Z,8.00
2022-08-26T09:16:54.901Z,7.75
2022-08-26T09:19:04.984Z,7.38
2022-08-26T09:21:09.659Z,8.10
2022-08-26T09:23:11.606Z,7.93
2022-08-26T09:25:14.981Z,7.65
2022-08-26T09:27:40.206Z,7.75
2022-08-26T09:29:46.354Z,7.38
2022-08-26T09:32:13.265Z,8.02
2022-08-26T09:34:19.471Z,7.88
2022-08-26T09:36:39.522Z,7.00
2022-08-26T09:38:43.855Z,6.97
2022-08-26T09:40:59.312Z,6.57
2022-08-26T09:43:16.001Z,6.50
2022-08-26T09:45:30.020Z,6.90
2022-08-26T09:47:40.553Z,7.15
2022-08-26T09:49:42.288Z,7.20
2022-08-26T09:51:50.065Z,6.93
2022-08-26T09:53:58.091Z,6.28
2022-08-26T09:56:23.777Z,6.32
2022-08-26T09:58:37.957Z,6.20
2022-08-26T10:00:55.892Z,6.35
2022-08-26T10:03:03.965Z,6.40
2022-08-26T10:05:09.900Z,6.22
2022-08-26T10:07:14.666Z,6.22
2022-08-26T10:09:18.744Z,6.63
2022-08-26T10:11:56.601Z,6.57
2022-08-26T10:14:04.710Z,6.32
2022-08-26T10:16:17.883Z,6.15
2022-08-26T10:18:34.969Z,5.85
2022-08-26T10:20:41.801Z,5.78
2022-08-26T10:23:07.821Z,6.20
2022-08-26T10:25:16.520Z,5.72
2022-08-26T10:27:32.309Z,5.90
2022-08-26T10:29:48.823Z,5.82
2022-08-26T10:31:58.791Z,5.95
2022-08-26T10:34:05.373Z,5.53
2022-08-26T10:36:39.465Z,5.85
2022-08-26T10:38:57.130Z,5.18
2022-08-26T10:41:16.950Z,4.68
2022-08-26T10:43:25.578Z,4.72
2022-08-26T10:45:33.346Z,5.45
2022-08-26T10:47:42.938Z,4.75
2022-08-26T10:49:47.177Z,5.00
2022-08-26T10:52:22.465Z,4.75
2022-08-26T10:54:42.138Z,5.25
2022-08-26T10:56:53.264Z,5.00
2022-08-26T10:59:12.406Z,4.95
2022-08-26T11:01:41.259Z,4.97
2022-08-26T11:04:06.141Z,5.15
2022-08-26T11:06:27.960Z,4.82
2022-08-26T11:08:30.330Z,4.80
2022-08-26T11:10:38.046Z,4.10
2022-08-26T11:12:39.875Z,4.82
2022-08-26T11:14:53.535Z,4.53
2022-08-26T11:17:01.378Z,4.40
2022-08-26T11:19:09.485Z,4.35
2022-08-26T11:21:49.516Z,4.10
2022-08-26T11:23:53.032Z,3.85
2022-08-26T11:26:10.937Z,4.10
2022-08-26T11:28:44.141Z,3.95
2022-08-26T11:30:48.356Z,4.60
2022-08-26T11:32:59.360Z,4.22
2022-08-26T11:35:22.116Z,4.15
2022-08-26T11:37:35.149Z,4.15
2022-08-26T11:39:57.155Z,4.00
2022-08-26T11:42:25.188Z,4.18
2022-08-26T11:44:38.928Z,3.92
2022-08-26T11:46:56.280Z,4.30
2022-08-26T11:49:03.538Z,4.18
2022-08-26T11:51:11.498Z,4.78
2022-08-26T11:53:19.221Z,4.90
2022-08-26T11:55:24.275Z,4.82
2022-08-26T11:57:47.663Z,4.68
2022-08-26T11:59:49.625Z,4.38
2022-08-26T12:01:54.593Z,4.22
2022-08-26T12:03:58.393Z,4.28
2022-08-26T12:06:01.197Z,4.47
2022-08-26T12:08:09.703Z,3.78
2022-08-26T12:10:30.007Z,3.20
2022-08-26T12:12:36.162Z,3.17
2022-08-26T12:14:38.197Z,3.40
2022-08-26T12:16:45.427Z,3.25
2022-08-26T12:18:50.170Z,3.25
2022-08-26T12:20:56.240Z,3.35
2022-08-26T12:23:00.160Z,3.05
2022-08-26T12:25:06.616Z,3.25
2022-08-26T12:27:17.932Z,3.67
2022-08-26T12:29:28.174Z,4.07
2022-08-26T12:31:35.592Z,4.50
2022-08-26T12:33:43.026Z,4.10
2022-08-26T12:35:49.387Z,4.88
2022-08-26T12:37:54.195Z,4.80
2022-08-26T12:40:52.818Z,4.78
2022-08-26T12:42:54.957Z,4.55
2022-08-26T12:45:05.532Z,4.50
2022-08-26T12:47:43.121Z,4.00
2022-08-26T12:49:45.681Z,4.82
2022-08-26T12:51:52.853Z,4.00
2022-08-26T12:54:02.513Z,4.97
2022-08-26T12:56:33.784Z,4.57
2022-08-26T12:58:40.296Z,4.95
2022-08-26T13:00:46.099Z,4.90
2022-08-26T13:02:49.836Z,4.90
2022-08-26T13:05:00.671Z,5.22
2022-08-26T13:07:22.587Z,4.30
2022-08-26T13:09:30.435Z,5.03
2022-08-26T13:11:34.682Z,5.07
2022-08-26T13:13:37.152Z,5.25
2022-08-26T13:15:44.369Z,5.38
2022-08-26T13:17:46.091Z,4.75
2022-08-26T13:19:47.753Z,4.55
2022-08-26T13:21:55.426Z,4.85
2022-08-26T13:24:01.366Z,5.00
2022-08-26T13:26:03.433Z,4.22
2022-08-26T13:28:05.373Z,4.72
2022-08-26T13:30:07.881Z,5.00
2022-08-26T13:32:12.403Z,5.05
2022-08-26T13:34:20.966Z,5.13
2022-08-26T13:36:23.140Z,5.18
2022-08-26T13:38:33.787Z,5.28
2022-08-26T13:40:35.952Z,5.15
2022-08-26T13:42:37.652Z,4.82
2022-08-26T13:44:53.225Z,5.57
2022-08-26T13:46:55.182Z,4.90
2022-08-26T13:48:57.469Z,4.88
2022-08-26T13:50:59.864Z,4.80
2022-08-26T13:53:01.872Z,5.22
2022-08-26T13:55:07.917Z,4.50
2022-08-26T13:57:10.973Z,4.55
2022-08-26T13:59:14.298Z,4.82
2022-08-26T14:01:16.958Z,5.22
2022-08-26T14:03:18.981Z,4.47
2022-08-26T14:05:23.197Z,4.68
2022-08-26T14:07:25.009Z,4.50
2022-08-26T14:09:27.597Z,4.80
2022-08-26T14:11:30.214Z,5.15
2022-08-26T14:13:50.994Z,5.88
2022-08-26T14:15:53.164Z,5.40
2022-08-26T14:17:55.747Z,4.43
2022-08-26T14:19:57.661Z,4.63
2022-08-26T14:22:02.584Z,4.57
2022-08-26T14:24:08.338Z,4.72
2022-08-26T14:26:28.956Z,4.32
2022-08-26T14:28:31.240Z,4.20
2022-08-26T14:30:32.966Z,5.07
2022-08-26T14:32:35.579Z,4.65
2022-08-26T14:34:39.976Z,4.50
2022-08-26T14:36:41.659Z,5.00
2022-08-26T14:38:43.393Z,4.22
2022-08-26T14:40:45.448Z,4.55
2022-08-26T14:42:53.906Z,3.88
2022-08-26T14:44:58.628Z,3.78
2022-08-26T14:47:02.706Z,3.45
2022-08-26T14:49:07.274Z,3.28
2022-08-26T14:51:12.176Z,2.70
2022-08-26T14:53:33.310Z,2.88
2022-08-26T14:55:39.035Z,3.38
2022-08-26T14:57:40.632Z,3.47
2022-08-26T14:59:49.733Z,3.60
2022-08-26T15:01:52.504Z,3.60
2022-08-26T15:03:54.172Z,3.47
2022-08-26T15:05:55.811Z,3.65
2022-08-26T15:07:57.513Z,4.20
2022-08-26T15:09:59.173Z,4.43
2022-08-26T15:12:02.544Z,4.70
2022-08-26T15:14:04.663Z,4.65
2022-08-26T15:16:08.988Z,4.65
2022-08-26T15:18:10.745Z,4.22
2022-08-26T15:20:12.511Z,4.40
2022-08-26T15:22:14.197Z,4.00
2022-08-26T15:24:18.877Z,3.75
2022-08-26T15:26:21.298Z,4.10
2022-08-26T15:28:23.226Z,3.55
2022-08-26T15:30:26.895Z,4.53
2022-08-26T15:32:30.895Z,4.50
2022-08-26T15:34:32.498Z,4.75
2022-08-26T15:36:35.381Z,4.45
2022-08-26T15:38:40.241Z,4.57
2022-08-26T15:40:43.444Z,3.90
2022-08-26T15:42:45.161Z,4.80
2022-08-26T15:45:02.004Z,4.32
2022-08-26T15:47:03.986Z,4.65
2022-08-26T15:49:06.979Z,4.35
2022-08-26T15:51:20.903Z,4.60
2022-08-26T15:53:24.486Z,4.82
2022-08-26T15:55:26.032Z,4.43
2022-08-26T15:57:27.577Z,4.38
2022-08-26T15:59:32.555Z,4.53
2022-08-26T16:01:35.729Z,5.15
2022-08-26T16:03:37.420Z,5.00
2022-08-26T16:05:40.799Z,6.15
2022-08-26T16:07:42.478Z,6.45
2022-08-26T16:09:43.992Z,6.38
2022-08-26T16:11:45.754Z,6.53
2022-08-26T16:13:47.781Z,7.00
2022-08-26T16:15:49.396Z,5.32
2022-08-26T16:17:50.890Z,4.93
2022-08-26T16:19:52.400Z,4.80
2022-08-26T16:21:54.393Z,4.53
2022-08-26T16:23:59.359Z,4.65
2022-08-26T16:26:08.512Z,4.20
2022-08-26T16:28:13.498Z,4.55
2022-08-26T16:30:15.674Z,4.05
2022-08-26T16:32:17.355Z,4.30
2022-08-26T16:34:21.064Z,4.47
2022-08-26T16:36:22.660Z,4.22
2022-08-26T16:38:24.886Z,4.18
2022-08-26T16:40:27.966Z,5.05
2022-08-26T16:42:29.715Z,4.20
2022-08-26T16:44:44.162Z,4.38
2022-08-26T16:46:45.931Z,4.53
2022-08-26T16:48:48.839Z,4.55
2022-08-26T16:50:55.774Z,4.03
2022-08-26T16:52:57.639Z,4.50
2022-08-26T16:55:01.318Z,4.47
2022-08-26T16:57:03.041Z,4.30
2022-08-26T16:59:07.030Z,4.05
2022-08-26T17:01:09.211Z,4.60
2022-08-26T17:03:11.882Z,5.28
2022-08-26T17:05:13.887Z,7.03
2022-08-26T17:07:15.547Z,8.95
2022-08-26T17:09:17.422Z,8.52
2022-08-26T17:11:19.629Z,8.07
2022-08-26T17:13:35.380Z,7.88
2022-08-26T17:15:44.625Z,6.07
2022-08-26T17:17:49.285Z,6.05
2022-08-26T17:19:50.818Z,5.55
2022-08-26T17:21:52.343Z,5.43
2022-08-26T17:23:56.540Z,4.88
2022-08-26T17:25:58.102Z,4.47
2022-08-26T17:27:59.726Z,5.05
2022-08-26T17:30:03.691Z,4.40
2022-08-26T17:32:08.545Z,6.60
2022-08-26T17:34:10.040Z,6.10
2022-08-26T17:36:11.783Z,5.78
2022-08-26T17:38:13.428Z,5.80
2022-08-26T17:40:18.618Z,7.90
2022-08-26T17:42:20.227Z,15.50
2022-08-26T17:44:22.073Z,15.25
2022-08-26T17:46:24.514Z,16.27
2022-08-26T17:48:26.476Z,16.75
2022-08-26T17:50:30.567Z,15.70
2022-08-26T17:52:32.522Z,14.80
2022-08-26T17:54:34.226Z,17.23
2022-08-26T17:56:36.134Z,13.10
2022-08-26T17:58:51.031Z,12.70
2022-08-26T18:00:54.641Z,11.85
2022-08-26T18:02:56.801Z,10.80
2022-08-26T18:04:58.814Z,9.50
2022-08-26T18:07:03.234Z,8.43
2022-08-26T18:09:05.369Z,8.02
2022-08-26T18:11:11.417Z,7.03
2022-08-26T18:13:16.657Z,6.45
2022-08-26T18:15:18.864Z,5.68
2022-08-26T18:17:22.990Z,5.28
2022-08-26T18:19:24.587Z,5.13
2022-08-26T18:21:27.464Z,4.60
2022-08-26T18:23:31.470Z,4.60
2022-08-26T18:25:33.629Z,4.38
2022-08-26T18:27:36.714Z,4.60
2022-08-26T18:29:45.550Z,4.80
2022-08-26T18:31:48.476Z,4.90
2022-08-26T18:33:50.577Z,4.97
2022-08-26T18:35:54.891Z,4.05
2022-08-26T18:37:58.011Z,4.55
2022-08-26T18:40:12.165Z,4.40
2022-08-26T18:42:14.245Z,4.68
2022-08-26T18:44:21.238Z,4.18
2022-08-26T18:46:27.450Z,4.57
2022-08-26T18:48:31.558Z,4.60
2022-08-26T18:50:33.484Z,4.40
2022-08-26T18:52:35.140Z,4.60
2022-08-26T18:54:36.852Z,5.00
2022-08-26T18:56:40.075Z,4.97
2022-08-26T18:58:44.874Z,4.25
2022-08-26T19:00:46.635Z,4.97
2022-08-26T19:02:51.904Z,5.38
2022-08-26T19:04:57.379Z,5.03
2022-08-26T19:06:59.687Z,4.68
2022-08-26T19:09:06.914Z,4.78
2022-08-26T19:11:10.968Z,4.75
2022-08-26T19:13:15.825Z,5.22
2022-08-26T19:15:21.708Z,4.93
2022-08-26T19:17:23.525Z,4.40
2022-08-26T19:19:25.205Z,5.65
2022-08-26T19:21:28.032Z,4.78
2022-08-26T19:23:31.853Z,4.88
2022-08-26T19:25:34.113Z,5.03
2022-08-26T19:27:35.791Z,5.03
2022-08-26T19:29:40.328Z,5.03
2022-08-26T19:31:42.410Z,4.53
2022-08-26T19:33:45.842Z,5.18
2022-08-26T19:35:47.846Z,5.10
2022-08-26T19:37:49.526Z,4.97
2022-08-26T19:39:51.330Z,5.18
2022-08-26T19:41:53.518Z,4.93
2022-08-26T19:43:56.092Z,4.80
2022-08-26T19:46:00.732Z,6.13
2022-08-26T19:48:06.072Z,5.93
2022-08-26T19:50:11.562Z,6.78
2022-08-26T19:52:16.513Z,7.63
2022-08-26T19:54:18.244Z,7.80
2022-08-26T19:56:21.484Z,7.25
2022-08-26T19:58:23.219Z,7.20
2022-08-26T20:00:27.341Z,8.27
2022-08-26T20:02:29.198Z,9.27
2022-08-26T20:04:31.799Z,10.40
2022-08-26T20:06:34.430Z,11.60
2022-08-26T20:08:41.731Z,10.98
2022-08-26T20:10:44.413Z,11.10
2022-08-26T20:12:47.349Z,10.95
2022-08-26T20:14:48.944Z,9.98
2022-08-26T20:16:50.725Z,10.30
2022-08-26T20:19:11.380Z,10.38
2022-08-26T20:21:29.538Z,10.32
2022-08-26T20:23:31.425Z,8.80
2022-08-26T20:25:34.247Z,8.70
2022-08-26T20:27:38.406Z,8.23
2022-08-26T20:29:41.976Z,7.80
2022-08-26T20:31:44.644Z,6.95
2022-08-26T20:33:46.839Z,7.25
2022-08-26T20:35:48.566Z,7.03
2022-08-26T20:37:50.248Z,6.97
2022-08-26T20:39:54.374Z,7.00
2022-08-26T20:41:57.302Z,6.85
2022-08-26T20:43:59.312Z,6.90
2022-08-26T20:46:01.017Z,6.47
2022-08-26T20:48:02.993Z,6.85
2022-08-26T20:50:05.175Z,6.65
2022-08-26T20:52:06.788Z,5.65
2022-08-26T20:54:08.535Z,6.18
2022-08-26T20:56:15.391Z,6.30
2022-08-26T20:58:17.135Z,5.82
2022-08-26T21:00:22.942Z,5.75
2022-08-26T21:02:28.293Z,5.90
2022-08-26T21:04:29.948Z,5.47
2022-08-26T21:06:35.210Z,6.18
2022-08-26T21:08:38.726Z,6.10
2022-08-26T21:10:45.472Z,6.15
2022-08-26T21:12:47.570Z,6.10
2022-08-26T21:14:49.858Z,6.32
2022-08-26T21:16:51.868Z,5.53
2022-08-26T21:18:53.571Z,5.80
2022-08-26T21:20:55.429Z,5.95
2022-08-26T21:22:57.248Z,5.78
2022-08-26T21:25:02.075Z,5.43
2022-08-26T21:27:05.269Z,5.22
2022-08-26T21:29:09.517Z,5.28
2022-08-26T21:31:16.664Z,5.45
2022-08-26T21:33:18.416Z,5.47
2022-08-26T21:35:20.177Z,4.95
2022-08-26T21:37:22.121Z,5.35
2022-08-26T21:39:29.916Z,4.70
2022-08-26T21:41:31.693Z,4.63
2022-08-26T21:43:38.381Z,5.15
2022-08-26T21:45:41.442Z,4.88
2022-08-26T21:47:43.841Z,5.00
2022-08-26T21:49:45.863Z,5.57
2022-08-26T21:51:48.620Z,4.57
2022-08-26T21:53:52.921Z,4.68
2022-08-26T21:55:55.011Z,4.55
2022-08-26T21:57:56.698Z,4.53
2022-08-26T21:59:59.559Z,4.47
2022-08-26T22:02:01.696Z,5.97
2022-08-26T22:04:06.786Z,14.20
2022-08-26T22:06:08.502Z,16.15
2022-08-26T22:08:10.434Z,13.93
2022-08-26T22:10:12.532Z,12.50
2022-08-26T22:12:14.448Z,9.40
2022-08-26T22:14:18.301Z,7.13
2022-08-26T22:16:20.031Z,5.88
2022-08-26T22:18:21.550Z,4.57
2022-08-26T22:20:23.966Z,4.40
2022-08-26T22:22:26.220Z,4.25
2022-08-26T22:24:27.856Z,4.05
2022-08-26T22:26:32.133Z,3.88
2022-08-26T22:28:34.453Z,3.58
2022-08-26T22:30:35.897Z,3.00
2022-08-26T22:32:39.636Z,3.15
2022-08-26T22:34:41.908Z,5.82
2022-08-26T22:36:48.464Z,8.15
2022-08-26T22:38:50.901Z,7.80
2022-08-26T22:41:03.421Z,6.88
2022-08-26T22:43:12.109Z,5.60
2022-08-26T22:45:13.758Z,4.43
2022-08-26T22:47:15.379Z,3.97
2022-08-26T22:49:17.703Z,3.33
2022-08-26T22:51:19.853Z,2.60
2022-08-26T22:53:21.608Z,2.90
2022-08-26T22:55:23.286Z,2.47
2022-08-26T22:57:24.904Z,2.58
2022-08-26T22:59:26.556Z,2.55
2022-08-26T23:01:28.531Z,2.45
2022-08-26T23:03:30.291Z,2.30
2022-08-26T23:05:31.985Z,2.60
2022-08-26T23:07:34.756Z,2.30
2022-08-26T23:09:36.922Z,2.40
2022-08-26T23:11:42.653Z,2.60
2022-08-26T23:13:44.176Z,2.15
2022-08-26T23:15:46.012Z,2.50
2022-08-26T23:17:53.583Z,2.67
2022-08-26T23:20:01.578Z,2.40
2022-08-26T23:22:03.693Z,2.13
2022-08-26T23:24:07.133Z,2.20
2022-08-26T23:26:09.085Z,2.50
2022-08-26T23:28:13.450Z,2.20
2022-08-26T23:30:19.037Z,3.13
2022-08-26T23:32:26.396Z,2.55
2022-08-26T23:34:46.888Z,2.60
2022-08-26T23:36:49.864Z,2.80
2022-08-26T23:38:53.481Z,2.67
2022-08-26T23:40:58.189Z,2.70
2022-08-26T23:43:03.432Z,2.75
2022-08-26T23:45:10.678Z,3.08
2022-08-26T23:47:12.543Z,3.00
2022-08-26T23:49:13.948Z,3.00
2022-08-26T23:51:34.324Z,3.30
2022-08-26T23:53:35.926Z,3.40
2022-08-26T23:55:39.181Z,3.42
2022-08-26T23:57:44.142Z,3.47
2022-08-26T23:59:46.058Z,3.20
